createdAt,value
2022-10-30T00:02:34.277Z,100.00
2022-10-30T00:07:34.455Z,100.00
2022-10-30T00:12:34.288Z,100.00
2022-10-30T00:17:34.420Z,100.00
2022-10-30T00:22:34.164Z,100.00
2022-10-30T00:27:34.194Z,100.00
2022-10-30T00:32:34.249Z,100.00
2022-10-30T00:42:34.765Z,100.00
2022-10-30T00:47:34.162Z,100.00
2022-10-30T00:52:34.481Z,100.00
2022-10-30T00:57:34.220Z,100.00
2022-10-30T01:02:34.548Z,100.00
2022-10-30T01:07:34.256Z,100.00
2022-10-30T01:12:34.210Z,100.00
2022-10-30T01:22:34.361Z,100.00
2022-10-30T01:27:34.551Z,100.00
2022-10-30T01:32:34.171Z,100.00
2022-10-30T01:37:34.194Z,100.00
2022-10-30T01:42:34.372Z,100.00
2022-10-30T01:47:34.438Z,100.00
2022-10-30T01:57:34.701Z,100.00
2022-10-30T02:02:34.412Z,100.00
2022-10-30T02:07:34.408Z,100.00
2022-10-30T02:12:34.545Z,100.00
2022-10-30T02:17:34.189Z,100.00
2022-10-30T02:22:34.563Z,100.00
2022-10-30T02:27:34.243Z,100.00
2022-10-30T02:32:34.227Z,100.00
2022-10-30T02:37:34.233Z,100.00
2022-10-30T02:42:34.235Z,100.00
2022-10-30T02:47:34.245Z,100.00
2022-10-30T02:52:34.428Z,100.00
2022-10-30T03:02:34.396Z,100.00
2022-10-30T03:07:34.515Z,100.00
2022-10-30T03:17:34.825Z,100.00
2022-10-30T03:22:34.361Z,99.36
2022-10-30T03:27:34.274Z,100.00
2022-10-30T03:32:34.272Z,99.16
2022-10-30T03:37:34.271Z,98.64
2022-10-30T03:47:34.416Z,98.52
2022-10-30T03:52:34.247Z,98.42
2022-10-30T03:57:34.278Z,98.42
2022-10-30T04:02:34.511Z,98.13
2022-10-30T04:07:34.363Z,98.82
2022-10-30T04:12:34.505Z,98.76
2022-10-30T04:17:34.330Z,98.65
2022-10-30T04:22:34.282Z,98.96
2022-10-30T04:27:34.682Z,99.26
2022-10-30T04:32:34.401Z,99.26
2022-10-30T04:37:34.580Z,99.84
2022-10-30T04:42:34.465Z,99.62
2022-10-30T04:47:34.328Z,99.25
2022-10-30T04:52:34.380Z,98.78
2022-10-30T04:57:34.531Z,99.01
2022-10-30T05:02:34.729Z,99.22
2022-10-30T05:07:34.468Z,99.41
2022-10-30T05:12:34.636Z,100.00
2022-10-30T05:17:34.297Z,100.00
2022-10-30T05:22:34.599Z,100.00
2022-10-30T05:27:34.388Z,100.00
2022-10-30T05:32:34.474Z,100.00
2022-10-30T05:37:34.378Z,100.00
2022-10-30T05:42:34.337Z,100.00
2022-10-30T05:47:34.299Z,100.00
2022-10-30T05:52:34.834Z,100.00
2022-10-30T05:57:34.551Z,100.00
2022-10-30T06:02:34.519Z,100.00
2022-10-30T06:07:34.624Z,100.00
2022-10-30T06:12:34.323Z,100.00
2022-10-30T06:17:38.526Z,100.00
2022-10-30T06:22:34.379Z,100.00
2022-10-30T06:27:34.333Z,100.00
2022-10-30T06:37:34.550Z,100.00
2022-10-30T06:42:34.336Z,100.00
2022-10-30T06:52:34.369Z,100.00
2022-10-30T06:57:34.465Z,100.00
2022-10-30T07:07:34.706Z,100.00
2022-10-30T07:12:34.626Z,100.00
2022-10-30T07:17:34.406Z,100.00
2022-10-30T07:22:34.552Z,100.00
2022-10-30T07:27:34.689Z,100.00
2022-10-30T07:32:34.539Z,100.00
2022-10-30T07:37:34.371Z,100.00
2022-10-30T07:42:34.563Z,100.00
2022-10-30T07:47:34.604Z,100.00
2022-10-30T07:52:34.697Z,100.00
2022-10-30T07:57:34.558Z,100.00
2022-10-30T08:02:34.541Z,100.00
2022-10-30T08:07:34.388Z,100.00
2022-10-30T08:12:34.722Z,100.00
2022-10-30T08:17:34.448Z,100.00
2022-10-30T08:22:34.647Z,100.00
2022-10-30T08:27:34.550Z,100.00
2022-10-30T08:32:34.408Z,99.84
2022-10-30T08:37:34.477Z,99.81
2022-10-30T08:42:34.634Z,99.77
2022-10-30T08:47:34.748Z,99.77
2022-10-30T08:52:34.549Z,99.24
2022-10-30T08:57:34.753Z,98.76
2022-10-30T09:02:34.574Z,98.76
2022-10-30T09:07:34.708Z,98.30
2022-10-30T09:12:34.512Z,97.49
2022-10-30T09:17:34.709Z,97.55
2022-10-30T09:27:34.562Z,97.39
2022-10-30T09:32:34.470Z,97.39
2022-10-30T09:37:34.624Z,96.92
2022-10-30T09:42:34.443Z,96.20
2022-10-30T09:47:34.423Z,96.05
2022-10-30T09:52:34.719Z,96.33
2022-10-30T09:57:34.449Z,95.68
2022-10-30T10:02:34.931Z,95.68
2022-10-30T10:07:34.457Z,94.42
2022-10-30T10:12:34.519Z,94.42
2022-10-30T10:17:34.438Z,94.18
2022-10-30T10:22:34.458Z,93.88
2022-10-30T10:27:34.779Z,93.88
2022-10-30T10:32:34.557Z,94.85
2022-10-30T10:37:34.760Z,93.50
2022-10-30T10:42:34.569Z,93.68
2022-10-30T10:47:34.706Z,93.34
2022-10-30T10:52:34.484Z,93.34
2022-10-30T10:57:34.713Z,91.68
2022-10-30T11:02:34.611Z,91.68
2022-10-30T11:07:34.801Z,91.32
2022-10-30T11:12:36.350Z,91.24
2022-10-30T11:17:34.547Z,90.92
2022-10-30T11:22:34.467Z,90.78
2022-10-30T11:27:34.552Z,90.83
2022-10-30T11:32:34.942Z,91.02
2022-10-30T11:37:34.471Z,90.04
2022-10-30T11:42:34.722Z,89.85
2022-10-30T11:52:34.648Z,87.48
2022-10-30T11:57:34.807Z,86.88
2022-10-30T12:02:34.579Z,86.88
2022-10-30T12:07:34.776Z,86.72
2022-10-30T12:12:34.563Z,85.80
2022-10-30T12:17:34.756Z,86.27
2022-10-30T12:22:34.580Z,86.27
2022-10-30T12:27:34.523Z,87.25
2022-10-30T12:32:39.340Z,86.62
2022-10-30T12:37:34.539Z,86.05
2022-10-30T12:42:34.521Z,85.15
2022-10-30T12:47:34.727Z,85.15
2022-10-30T12:52:34.508Z,85.61
2022-10-30T12:57:34.581Z,85.61
2022-10-30T13:02:34.843Z,85.42
2022-10-30T13:07:34.574Z,85.42
2022-10-30T13:12:34.625Z,85.81
2022-10-30T13:17:34.562Z,86.76
2022-10-30T13:22:34.766Z,86.46
2022-10-30T13:27:34.846Z,86.46
2022-10-30T13:32:34.511Z,86.83
2022-10-30T13:37:35.090Z,86.83
2022-10-30T13:42:34.721Z,87.03
2022-10-30T13:47:35.045Z,87.03
2022-10-30T13:52:34.626Z,86.72
2022-10-30T13:57:34.557Z,86.72
2022-10-30T14:02:34.663Z,87.07
2022-10-30T14:07:34.859Z,87.41
2022-10-30T14:12:34.880Z,87.41
2022-10-30T14:17:34.658Z,87.04
2022-10-30T14:22:34.550Z,87.62
2022-10-30T14:27:34.673Z,87.62
2022-10-30T14:32:34.563Z,87.84
2022-10-30T14:37:34.586Z,87.62
2022-10-30T14:42:34.542Z,87.73
2022-10-30T14:47:34.637Z,87.73
2022-10-30T14:52:34.755Z,88.15
2022-10-30T14:57:34.589Z,89.06
2022-10-30T15:02:34.753Z,89.28
2022-10-30T15:07:34.595Z,89.28
2022-10-30T15:12:34.721Z,90.45
2022-10-30T15:17:34.658Z,90.45
2022-10-30T15:22:34.686Z,91.12
2022-10-30T15:27:34.808Z,91.52
2022-10-30T15:32:34.680Z,91.42
2022-10-30T15:37:34.778Z,91.42
2022-10-30T15:42:35.086Z,92.49
2022-10-30T15:47:34.745Z,93.10
2022-10-30T15:52:34.884Z,93.10
2022-10-30T15:58:13.314Z,93.71
2022-10-30T16:02:35.006Z,94.51
2022-10-30T16:07:34.771Z,94.43
2022-10-30T16:12:34.797Z,94.59
2022-10-30T16:17:34.610Z,94.26
2022-10-30T16:22:34.613Z,94.87
2022-10-30T16:27:34.939Z,94.87
2022-10-30T16:32:34.915Z,95.01
2022-10-30T16:37:34.913Z,95.01
2022-10-30T16:42:34.625Z,96.18
2022-10-30T16:47:34.871Z,96.18
2022-10-30T16:52:34.858Z,95.76
2022-10-30T16:57:36.087Z,95.73
2022-10-30T17:02:34.735Z,95.73
2022-10-30T17:07:34.661Z,96.18
2022-10-30T17:12:34.982Z,96.49
2022-10-30T17:17:34.847Z,96.34
2022-10-30T17:22:35.023Z,95.93
2022-10-30T17:27:34.630Z,95.93
2022-10-30T17:32:34.961Z,96.27
2022-10-30T17:37:34.658Z,95.43
2022-10-30T17:42:34.909Z,95.92
2022-10-30T17:47:34.662Z,96.66
2022-10-30T17:57:36.021Z,97.14
2022-10-30T18:02:35.014Z,97.14
2022-10-30T18:07:34.964Z,97.43
2022-10-30T18:12:34.769Z,97.56
2022-10-30T18:17:34.909Z,97.56
2022-10-30T18:22:34.869Z,97.07
2022-10-30T18:27:35.007Z,97.07
2022-10-30T18:32:34.920Z,97.46
2022-10-30T18:37:34.942Z,97.46
2022-10-30T18:42:34.991Z,97.36
2022-10-30T18:47:35.018Z,97.21
2022-10-30T18:52:34.904Z,97.83
2022-10-30T18:57:35.044Z,97.83
2022-10-30T19:02:35.097Z,97.40
2022-10-30T19:07:34.905Z,97.40
2022-10-30T19:12:38.468Z,97.36
2022-10-30T19:27:34.955Z,97.58
2022-10-30T19:32:34.936Z,97.93
2022-10-30T19:37:35.026Z,97.93
2022-10-30T19:42:35.295Z,97.52
2022-10-30T19:47:35.334Z,97.10
2022-10-30T19:52:35.033Z,97.47
2022-10-30T19:57:34.940Z,97.24
2022-10-30T20:02:35.092Z,97.24
2022-10-30T20:07:34.725Z,97.54
2022-10-30T20:12:35.057Z,97.18
2022-10-30T20:17:34.740Z,96.92
2022-10-30T20:22:36.251Z,97.43
2022-10-30T20:27:35.063Z,97.43
2022-10-30T20:32:34.944Z,98.33
2022-10-30T20:37:34.874Z,98.31
2022-10-30T20:42:37.380Z,98.31
2022-10-30T20:52:34.999Z,98.34
2022-10-30T20:57:34.875Z,97.85
2022-10-30T21:02:34.946Z,97.85
2022-10-30T21:07:34.727Z,98.11
2022-10-30T21:12:35.091Z,98.59
2022-10-30T21:17:34.751Z,98.59
2022-10-30T21:22:34.945Z,98.59
2022-10-30T21:27:34.870Z,98.09
2022-10-30T21:32:34.822Z,97.87
2022-10-30T21:37:34.928Z,97.87
2022-10-30T21:42:34.762Z,98.40
2022-10-30T21:47:34.882Z,98.24
2022-10-30T21:52:34.811Z,97.79
2022-10-30T21:57:34.859Z,99.18
2022-10-30T22:02:34.756Z,99.18
2022-10-30T22:07:34.851Z,99.29
2022-10-30T22:12:34.747Z,98.65
2022-10-30T22:22:34.794Z,98.42
2022-10-30T22:27:35.089Z,98.62
2022-10-30T22:32:34.767Z,99.24
2022-10-30T22:37:35.058Z,99.57
2022-10-30T22:42:34.789Z,99.57
2022-10-30T22:47:35.006Z,100.00
2022-10-30T22:52:34.839Z,100.00
2022-10-30T22:57:35.004Z,100.00
2022-10-30T23:02:34.808Z,100.00
2022-10-30T23:07:34.991Z,100.00
2022-10-30T23:12:35.161Z,100.00
2022-10-30T23:17:34.805Z,100.00
2022-10-30T23:22:35.064Z,100.00
2022-10-30T23:27:34.816Z,100.00
2022-10-30T23:32:34.846Z,100.00
2022-10-30T23:37:34.836Z,100.00
2022-10-30T23:42:34.818Z,100.00
2022-10-30T23:47:34.834Z,100.00
2022-10-30T23:52:34.993Z,100.00
2022-10-30T23:57:35.109Z,100.00
